Terminal Aerodrome Forecast
Issued by NWS

Home | Current Version | Previous Version | Text Only | Print | Product List | Glossary On
Versions: 1 2 3 4 5 6 7 8 9 10 11 12 13
000
FTUS44 KTSA 311120
TAFBVO
TAF
KBVO 311120Z 3112/0112 00000KT 2SM BR BKN035
      TEMPO 3112/3114 4SM -TSRA BKN035CB
     FM311500 17006KT P6SM SCT015 BKN025
     FM311800 19008KT P6SM VCTS BKN035CB
     FM010000 VRB05KT P6SM VCTS BKN100CB PROB30 0106/0112 4SM -TSRA
      BKN040CB=

USA.gov is the U.S. government's official web portal to all federal, state and local government web resources and services.